Time;durP1;ratioP1;P1;durP2;ratioP2;P2;SDS_P1;SDS_P2;PMS_P1;PMS_P2;Temp;Humidity;BMP_temperature;BMP_pressure;BME280_temperature;BME280_humidity;BME280_pressure;Samples;Min_cycle;Max_cycle;Signal;HPM_P1;HPM_P2
2022/07/29 00:02:18;;;;;;;4.47;1.57;;;15.60;99.90;;;;;;5117924;27;20050;-73
2022/07/29 00:04:44;;;;;;;5.43;1.40;;;15.60;99.90;;;;;;5135907;27;20054;-73
2022/07/29 00:07:09;;;;;;;7.00;1.40;;;15.60;99.90;;;;;;5136147;27;20046;-74
2022/07/29 00:09:35;;;;;;;6.97;1.50;;;15.60;99.90;;;;;;5136197;27;20047;-73
2022/07/29 00:12:01;;;;;;;7.33;1.37;;;15.60;99.90;;;;;;5135342;27;20043;-74
2022/07/29 00:14:28;;;;;;;5.97;1.33;;;15.60;99.90;;;;;;5135742;27;20051;-73
2022/07/29 00:16:54;;;;;;;7.43;2.00;;;15.60;99.90;;;;;;5135681;27;20288;-73
2022/07/29 00:19:19;;;;;;;7.17;1.40;;;15.60;99.90;;;;;;5135854;27;20333;-74
2022/07/29 00:21:45;;;;;;;6.13;2.30;;;15.60;99.90;;;;;;5135535;27;20099;-74
2022/07/29 00:24:11;;;;;;;5.87;2.03;;;15.60;99.90;;;;;;5136133;27;20130;-74
2022/07/29 00:26:36;;;;;;;6.47;1.67;;;15.60;99.90;;;;;;5117498;27;20043;-74
2022/07/29 00:29:03;;;;;;;3.23;1.50;;;15.60;99.90;;;;;;5135427;27;20047;-74
2022/07/29 00:31:29;;;;;;;6.97;1.77;;;15.60;99.90;;;;;;5117360;27;20043;-73
2022/07/29 00:33:55;;;;;;;4.87;1.60;;;15.60;99.90;;;;;;5135249;27;20308;-73
2022/07/29 00:36:21;;;;;;;4.17;1.63;;;15.60;99.90;;;;;;5135582;27;20436;-72
2022/07/29 00:38:48;;;;;;;5.13;1.40;;;15.60;99.90;;;;;;5134926;27;20296;-74
2022/07/29 00:41:14;;;;;;;3.50;1.33;;;15.60;99.90;;;;;;5135381;27;20570;-73
2022/07/29 00:43:40;;;;;;;8.43;1.80;;;15.60;99.90;;;;;;5117230;27;20371;-73
2022/07/29 00:46:06;;;;;;;6.50;1.47;;;15.60;99.90;;;;;;5135083;27;20393;-73
2022/07/29 00:48:32;;;;;;;4.10;1.57;;;15.60;99.90;;;;;;5135308;27;20047;-73
2022/07/29 00:50:59;;;;;;;6.17;1.73;;;15.60;99.90;;;;;;5135028;27;20364;-73
2022/07/29 00:53:26;;;;;;;6.77;2.07;;;15.60;99.90;;;;;;5135068;27;20039;-73
2022/07/29 00:55:54;;;;;;;2.97;1.37;;;15.60;99.90;;;;;;5134541;27;20762;-74
2022/07/29 00:58:20;;;;;;;6.23;1.50;;;15.60;99.90;;;;;;5135109;27;20280;-73
2022/07/29 01:00:45;;;;;;;3.97;1.60;;;15.50;99.90;;;;;;5135096;27;20326;-73
2022/07/29 01:03:11;;;;;;;4.97;1.60;;;15.50;99.90;;;;;;5134765;27;20039;-73
2022/07/29 01:05:38;;;;;;;5.30;1.50;;;15.50;99.90;;;;;;5117120;27;20050;-73
2022/07/29 01:08:05;;;;;;;4.13;1.40;;;15.40;99.90;;;;;;5134683;27;20433;-73
2022/07/29 01:10:31;;;;;;;7.50;1.67;;;15.40;99.90;;;;;;5134964;27;20312;-73
2022/07/29 01:12:59;;;;;;;2.97;1.40;;;15.50;99.90;;;;;;5134559;27;20384;-74
2022/07/29 01:15:25;;;;;;;4.67;1.73;;;15.40;99.90;;;;;;5134750;27;20292;-73
2022/07/29 01:18:06;;;;;;;4.90;1.53;;;15.40;99.90;;;;;;5134483;27;20277;-76
2022/07/29 01:20:42;;;;;;;5.73;1.47;;;15.40;99.90;;;;;;5134793;27;20047;-73
2022/07/29 01:23:37;;;;;;;4.37;1.60;;;15.40;99.90;;;;;;5134442;27;20280;-73
2022/07/29 01:26:44;;;;;;;5.50;1.65;;;15.40;99.90;;;;;;5116148;27;20313;-73
2022/07/29 01:29:16;;;;;;;5.83;2.07;;;15.40;99.90;;;;;;5111536;27;20082;-73
2022/07/29 01:31:48;;;;;;;4.67;1.73;;;15.40;99.90;;;;;;5134693;27;20281;-73
2022/07/29 01:34:48;;;;;;;4.20;1.63;;;15.40;99.90;;;;;;5134104;27;20292;-73
2022/07/29 01:37:22;;;;;;;5.07;1.80;;;15.40;99.90;;;;;;5129083;27;20295;-74
2022/07/29 01:39:51;;;;;;;5.00;1.70;;;15.40;99.90;;;;;;5134625;27;20281;-73
2022/07/29 01:42:44;;;;;;;6.27;1.80;;;15.30;99.90;;;;;;5115641;27;20637;-74
2022/07/29 01:45:45;;;;;;;4.57;1.60;;;15.30;99.90;;;;;;5134044;27;20276;-73
2022/07/29 01:48:23;;;;;;;5.90;1.70;;;15.30;99.90;;;;;;5079063;27;20341;-73
2022/07/29 01:50:53;;;;;;;6.20;1.53;;;15.30;99.90;;;;;;5134214;27;20272;-74
2022/07/29 01:53:29;;;;;;;6.07;1.90;;;15.30;99.90;;;;;;5134132;27;20388;-73
2022/07/29 01:55:57;;;;;;;4.83;2.00;;;15.30;99.90;;;;;;5133875;27;20276;-79
2022/07/29 01:58:25;;;;;;;6.17;1.83;;;15.30;99.90;;;;;;5134010;27;20624;-73
2022/07/29 02:00:52;;;;;;;3.70;1.90;;;15.30;99.90;;;;;;5134094;27;20737;-73
2022/07/29 02:03:18;;;;;;;5.77;1.67;;;15.30;99.90;;;;;;5133752;27;20272;-73
2022/07/29 02:05:47;;;;;;;6.70;1.67;;;15.30;99.90;;;;;;5133920;27;20372;-74
2022/07/29 02:08:15;;;;;;;5.20;1.80;;;15.30;99.90;;;;;;5133575;27;20372;-74
2022/07/29 02:10:43;;;;;;;6.53;2.00;;;15.30;99.90;;;;;;5133946;27;20331;-74
2022/07/29 02:13:11;;;;;;;4.33;1.67;;;15.40;99.90;;;;;;5133490;27;20305;-74
2022/07/29 02:15:39;;;;;;;5.23;2.17;;;15.30;99.90;;;;;;5133808;28;20276;-74
2022/07/29 02:18:09;;;;;;;5.17;1.90;;;15.40;99.90;;;;;;5133505;28;20272;-74
2022/07/29 02:20:36;;;;;;;5.27;2.10;;;15.30;99.90;;;;;;5133803;28;20286;-74
2022/07/29 02:23:02;;;;;;;4.20;2.03;;;15.40;99.90;;;;;;5115289;28;20748;-74
2022/07/29 02:25:29;;;;;;;6.57;2.00;;;15.40;99.90;;;;;;5133746;28;20325;-74
2022/07/29 02:27:56;;;;;;;6.07;1.77;;;15.40;99.90;;;;;;5133723;28;20296;-74
2022/07/29 02:30:23;;;;;;;6.47;2.00;;;15.30;99.90;;;;;;5133366;28;20328;-74
2022/07/29 02:32:50;;;;;;;4.27;1.53;;;15.40;99.90;;;;;;5133639;28;20401;-74
2022/07/29 02:35:17;;;;;;;7.07;1.67;;;15.40;99.90;;;;;;5133470;28;20625;-74
2022/07/29 02:38:49;;;;;;;4.03;2.00;;;15.30;99.90;;;;;;5133693;28;20281;-74
2022/07/29 02:40:32;;;;;;;5.50;2.00;;;15.40;99.90;;;;;;5133489;28;20277;-74
2022/07/29 02:42:58;;;;;;;5.67;1.93;;;15.30;99.90;;;;;;5133557;28;20273;-74
2022/07/29 02:45:24;;;;;;;3.80;1.80;;;15.40;99.90;;;;;;5133421;28;20284;-74
2022/07/29 02:47:51;;;;;;;5.23;1.70;;;15.40;99.90;;;;;;5133703;28;20296;-74
2022/07/29 02:50:44;;;;;;;7.37;2.17;;;15.40;99.90;;;;;;5133183;28;20289;-74
2022/07/29 02:53:22;;;;;;;4.70;1.50;;;15.40;99.90;;;;;;5133220;28;20296;-74
2022/07/29 02:56:04;;;;;;;6.23;2.30;;;15.30;99.90;;;;;;5136017;27;20280;-74
2022/07/29 02:58:38;;;;;;;6.27;1.90;;;15.40;99.90;;;;;;5119363;27;20817;-74
2022/07/29 03:01:12;;;;;;;3.53;1.77;;;15.30;99.90;;;;;;5137381;27;20359;-74
2022/07/29 03:03:39;;;;;;;5.90;2.47;;;15.40;99.90;;;;;;5137538;27;20264;-74
2022/07/29 03:06:06;;;;;;;6.30;2.10;;;15.30;99.90;;;;;;5137061;27;20047;-74
2022/07/29 03:08:33;;;;;;;8.70;2.20;;;15.30;99.90;;;;;;5119163;27;20786;-74
2022/07/29 03:11:01;;;;;;;5.97;2.00;;;15.40;99.90;;;;;;5119012;27;20686;-74
2022/07/29 03:13:27;;;;;;;6.67;2.10;;;15.30;99.90;;;;;;5136821;27;20305;-74
2022/07/29 03:15:54;;;;;;;4.83;2.03;;;15.40;99.90;;;;;;5137164;27;20283;-74
2022/07/29 03:18:20;;;;;;;6.40;1.90;;;15.40;99.90;;;;;;5136864;27;20288;-74
2022/07/29 03:20:46;;;;;;;4.83;2.00;;;15.30;99.90;;;;;;5137216;27;20628;-74
2022/07/29 03:23:17;;;;;;;7.63;2.27;;;15.30;99.90;;;;;;5136685;27;20277;-74
2022/07/29 03:25:43;;;;;;;6.87;1.90;;;15.30;99.90;;;;;;5137168;27;20047;-74
2022/07/29 03:28:09;;;;;;;5.80;1.87;;;15.30;99.90;;;;;;5136622;27;20606;-74
2022/07/29 03:30:35;;;;;;;4.97;2.17;;;15.30;99.90;;;;;;5136849;27;20475;-73
2022/07/29 03:33:00;;;;;;;4.97;2.10;;;15.40;99.90;;;;;;5136794;27;20122;-73
2022/07/29 03:35:26;;;;;;;5.47;2.23;;;15.30;99.90;;;;;;5136250;27;20050;-74
2022/07/29 03:37:52;;;;;;;6.70;1.97;;;15.30;99.90;;;;;;5136711;27;20047;-74
2022/07/29 03:40:27;;;;;;;5.83;2.17;;;15.30;99.90;;;;;;5136388;27;20418;-74
2022/07/29 03:42:55;;;;;;;4.13;1.77;;;15.30;99.90;;;;;;5136825;27;20050;-73
2022/07/29 03:45:22;;;;;;;3.60;1.60;;;15.40;99.90;;;;;;5136298;27;20363;-73
2022/07/29 03:47:56;;;;;;;7.60;2.27;;;15.40;99.90;;;;;;5136519;27;20277;-73
2022/07/29 03:50:23;;;;;;;5.78;1.95;;;15.40;99.90;;;;;;5136337;27;20360;-73
2022/07/29 03:52:49;;;;;;;5.17;1.67;;;15.40;99.90;;;;;;5118077;27;20088;-73
2022/07/29 03:55:15;;;;;;;4.23;1.73;;;15.40;99.90;;;;;;5136205;27;20289;-73
2022/07/29 03:57:42;;;;;;;6.07;1.70;;;15.40;99.90;;;;;;5118271;27;20051;-73
2022/07/29 04:00:09;;;;;;;5.10;2.20;;;15.40;99.90;;;;;;5135913;27;20276;-79
2022/07/29 04:02:36;;;;;;;8.60;1.87;;;15.30;99.90;;;;;;5136334;27;20825;-73
2022/07/29 04:05:02;;;;;;;4.27;1.67;;;15.40;99.90;;;;;;5136112;27;20443;-73
2022/07/29 04:07:28;;;;;;;5.70;2.27;;;15.40;99.90;;;;;;5135165;27;20284;-73
2022/07/29 04:09:54;;;;;;;5.10;1.50;;;15.40;99.90;;;;;;5117896;27;20057;-73
2022/07/29 04:12:20;;;;;;;3.93;1.60;;;15.30;99.90;;;;;;5135391;27;20276;-74
2022/07/29 04:14:46;;;;;;;4.87;1.63;;;15.30;99.90;;;;;;5136025;27;20135;-73
2022/07/29 04:17:12;;;;;;;7.50;1.70;;;15.30;99.90;;;;;;5135700;27;20371;-74
2022/07/29 04:19:38;;;;;;;5.00;1.90;;;15.30;99.90;;;;;;5136236;27;20363;-73
2022/07/29 04:22:03;;;;;;;3.47;1.37;;;15.30;99.90;;;;;;5135722;27;20042;-73
2022/07/29 04:24:29;;;;;;;6.50;2.23;;;15.40;99.90;;;;;;5135557;27;20489;-73
2022/07/29 04:26:55;;;;;;;5.47;1.80;;;15.40;99.90;;;;;;5135740;27;20085;-73
2022/07/29 04:29:21;;;;;;;6.07;1.97;;;15.30;99.90;;;;;;5135455;27;20092;-73
2022/07/29 04:31:47;;;;;;;5.33;1.70;;;15.30;99.90;;;;;;5117549;27;20292;-73
2022/07/29 04:34:13;;;;;;;5.53;2.03;;;15.30;99.90;;;;;;5135240;27;20035;-76
2022/07/29 04:36:39;;;;;;;6.40;1.70;;;15.20;99.90;;;;;;5117474;27;20047;-73
2022/07/29 04:39:04;;;;;;;5.37;1.80;;;15.30;99.90;;;;;;5117432;27;20047;-73
2022/07/29 04:41:30;;;;;;;7.43;1.90;;;15.30;99.90;;;;;;5116837;27;20402;-74
2022/07/29 04:43:56;;;;;;;5.40;1.90;;;15.30;99.90;;;;;;5135514;27;20039;-73
2022/07/29 04:46:22;;;;;;;7.57;2.03;;;15.30;99.90;;;;;;5135208;27;20394;-73
2022/07/29 04:48:48;;;;;;;5.53;1.60;;;15.30;99.90;;;;;;5135007;27;20108;-73
2022/07/29 04:51:17;;;;;;;4.70;1.70;;;15.30;99.90;;;;;;5135159;27;20227;-79
2022/07/29 04:53:43;;;;;;;7.77;2.00;;;15.30;99.90;;;;;;5135338;27;20292;-73
2022/07/29 04:56:08;;;;;;;4.00;1.30;;;15.30;99.90;;;;;;5135513;27;20695;-73
2022/07/29 04:58:35;;;;;;;4.17;1.80;;;15.40;99.90;;;;;;5134956;27;20280;-74
2022/07/29 05:01:01;;;;;;;5.03;2.03;;;15.40;99.90;;;;;;5116907;27;20039;-73
2022/07/29 05:03:26;;;;;;;3.87;1.53;;;15.40;99.90;;;;;;5134821;27;20337;-74
2022/07/29 05:05:52;;;;;;;7.23;2.00;;;15.40;99.90;;;;;;5135089;27;20546;-73
2022/07/29 05:08:18;;;;;;;6.10;1.70;;;15.40;99.90;;;;;;5116515;27;20054;-74
2022/07/29 05:10:45;;;;;;;3.90;1.60;;;15.40;99.90;;;;;;5116654;27;20042;-74
2022/07/29 05:13:10;;;;;;;5.87;2.10;;;15.50;99.90;;;;;;5116427;27;20080;-73
2022/07/29 05:15:37;;;;;;;5.40;1.50;;;15.50;99.90;;;;;;5116262;27;20284;-74
2022/07/29 05:18:03;;;;;;;5.07;1.70;;;15.50;99.90;;;;;;5134070;27;20060;-73
2022/07/29 05:20:30;;;;;;;6.43;2.23;;;15.60;99.90;;;;;;5134550;27;20296;-74
2022/07/29 05:22:59;;;;;;;4.90;1.90;;;15.60;99.90;;;;;;5116346;27;20320;-73
2022/07/29 05:25:26;;;;;;;5.87;1.90;;;15.60;99.90;;;;;;5134327;27;20760;-74
2022/07/29 05:27:52;;;;;;;5.70;2.00;;;15.70;99.90;;;;;;5134393;27;20748;-74
2022/07/29 05:30:18;;;;;;;7.73;2.00;;;15.80;99.90;;;;;;5134606;27;20293;-76
2022/07/29 05:32:44;;;;;;;5.83;1.97;;;15.80;99.90;;;;;;5134448;27;20054;-74
2022/07/29 05:35:11;;;;;;;6.53;1.70;;;15.80;99.90;;;;;;5134408;27;20281;-74
2022/07/29 05:37:37;;;;;;;7.33;2.30;;;15.90;99.90;;;;;;5134490;27;20080;-74
2022/07/29 05:40:04;;;;;;;6.57;1.87;;;16.00;99.90;;;;;;5134382;27;20748;-74
2022/07/29 05:42:29;;;;;;;7.67;2.23;;;16.00;99.90;;;;;;5134083;27;20135;-74
2022/07/29 05:44:56;;;;;;;5.57;2.07;;;16.00;99.90;;;;;;5134520;27;20327;-74
2022/07/29 05:47:22;;;;;;;6.93;2.20;;;16.00;99.90;;;;;;5115849;27;20095;-74
2022/07/29 05:49:48;;;;;;;4.73;1.90;;;16.00;99.90;;;;;;5116220;27;20293;-74
2022/07/29 05:52:14;;;;;;;6.27;1.90;;;16.10;99.90;;;;;;5098987;27;20285;-74
2022/07/29 05:54:40;;;;;;;5.63;1.73;;;16.20;99.90;;;;;;5133913;27;20287;-74
2022/07/29 05:57:06;;;;;;;4.67;1.63;;;16.40;99.90;;;;;;5133802;27;20272;-74
2022/07/29 05:59:35;;;;;;;5.47;1.90;;;16.80;99.90;;;;;;5133809;27;20057;-74
2022/07/29 06:02:01;;;;;;;6.97;1.90;;;17.00;99.90;;;;;;5134126;27;20047;-74
2022/07/29 06:04:27;;;;;;;5.23;2.10;;;17.10;99.90;;;;;;5133820;27;20364;-74
2022/07/29 06:06:52;;;;;;;6.40;1.97;;;17.20;99.90;;;;;;5133984;27;20043;-74
2022/07/29 06:09:18;;;;;;;4.97;1.90;;;17.20;99.90;;;;;;5134100;27;20039;-73
2022/07/29 06:11:44;;;;;;;6.97;1.93;;;17.20;99.90;;;;;;5133652;27;20100;-74
2022/07/29 06:14:10;;;;;;;6.47;1.83;;;17.50;99.90;;;;;;5133334;27;20047;-74
2022/07/29 06:16:36;;;;;;;7.27;2.00;;;17.60;99.90;;;;;;5133648;28;20126;-74
2022/07/29 06:19:01;;;;;;;5.43;1.63;;;17.70;99.90;;;;;;5115520;28;20047;-74
2022/07/29 06:21:27;;;;;;;6.67;2.40;;;17.70;99.90;;;;;;5133604;28;20051;-74
2022/07/29 06:23:53;;;;;;;5.87;1.83;;;17.80;99.90;;;;;;5134012;28;20035;-74
2022/07/29 06:26:18;;;;;;;7.57;1.97;;;17.90;99.90;;;;;;5133677;28;20070;-73
2022/07/29 06:28:44;;;;;;;6.20;1.93;;;18.20;99.90;;;;;;5116057;27;20146;-74
2022/07/29 06:31:10;;;;;;;6.60;2.20;;;19.10;99.90;;;;;;5138065;27;20440;-74
2022/07/29 06:33:35;;;;;;;10.57;2.97;;;20.30;99.90;;;;;;5137670;27;20065;-74
2022/07/29 06:36:04;;;;;;;5.00;2.17;;;21.10;99.90;;;;;;5137575;27;20130;-74
2022/07/29 06:38:30;;;;;;;6.70;2.10;;;22.10;97.50;;;;;;5137556;27;20089;-74
2022/07/29 06:41:09;;;;;;;11.57;2.57;;;23.30;96.40;;;;;;5137857;27;20090;-74
2022/07/29 06:43:41;;;;;;;4.70;1.90;;;24.20;90.50;;;;;;5119245;27;20406;-73
2022/07/29 06:46:12;;;;;;;7.87;2.00;;;24.90;80.40;;;;;;5137767;27;20090;-73
2022/07/29 06:48:38;;;;;;;4.77;2.00;;;24.90;69.10;;;;;;5137440;27;20104;-74
2022/07/29 06:51:05;;;;;;;7.70;2.30;;;25.00;69.00;;;;;;5137400;27;20057;-74
2022/07/29 06:53:32;;;;;;;6.50;1.90;;;25.40;62.20;;;;;;5137323;27;20082;-74
2022/07/29 06:55:59;;;;;;;5.70;2.10;;;25.80;65.10;;;;;;5137500;27;20043;-74
2022/07/29 06:58:25;;;;;;;5.10;1.90;;;;;;;;;;5137602;27;20043;-74
2022/07/29 07:00:52;;;;;;;3.47;1.90;;;;;;;;;;5137102;27;20049;-74
2022/07/29 07:03:18;;;;;;;5.37;1.70;;;;;;;;;;5119187;27;20047;-75
2022/07/29 07:05:44;;;;;;;6.17;2.13;;;;;;;;;;5118855;27;20078;-76
2022/07/29 07:08:11;;;;;;;4.20;2.00;;;23.70;61.60;;;;;;5137279;27;20047;-76
2022/07/29 07:10:36;;;;;;;9.23;2.43;;;23.60;62.20;;;;;;5136988;27;20047;-77
2022/07/29 07:13:03;;;;;;;5.10;2.10;;;22.70;64.60;;;;;;5137041;27;20072;-76
2022/07/29 07:15:29;;;;;;;6.30;1.90;;;22.00;67.00;;;;;;5137147;27;20050;-76
2022/07/29 07:17:55;;;;;;;8.73;2.47;;;21.70;70.10;;;;;;5136892;27;20099;-75
2022/07/29 07:20:20;;;;;;;7.70;1.93;;;21.60;74.10;;;;;;5137291;27;20051;-76
2022/07/29 07:22:46;;;;;;;6.50;2.00;;;21.90;76.60;;;;;;5136765;27;20427;-77
2022/07/29 07:25:12;;;;;;;4.60;1.97;;;22.70;75.60;;;;;;5137049;27;20504;-77
2022/07/29 07:27:39;;;;;;;5.87;2.17;;;23.80;70.90;;;;;;5136689;27;20084;-77
2022/07/29 07:30:06;;;;;;;5.57;2.23;;;24.10;66.50;;;;;;5136867;27;20043;-77
2022/07/29 07:32:32;;;;;;;6.70;2.53;;;24.70;64.90;;;;;;5118319;27;20057;-77
2022/07/29 07:34:58;;;;;;;4.63;1.90;;;25.10;61.90;;;;;;5136782;27;20479;-77
2022/07/29 07:37:25;;;;;;;9.00;2.33;;;25.60;60.80;;;;;;5136645;27;20062;-77
2022/07/29 07:39:51;;;;;;;6.23;2.10;;;26.30;59.30;;;;;;5118322;27;20444;-78
2022/07/29 07:42:17;;;;;;;4.43;1.63;;;;;;;;;;5136239;27;20046;-78
2022/07/29 07:44:45;;;;;;;5.17;1.90;;;;;;;;;;5136280;27;20047;-78
2022/07/29 07:47:11;;;;;;;6.10;2.00;;;;;;;;;;5136633;27;20060;-78
2022/07/29 07:49:37;;;;;;;6.63;2.10;;;24.20;58.10;;;;;;5136379;27;20391;-78
2022/07/29 07:52:03;;;;;;;7.73;2.00;;;23.70;59.50;;;;;;5136499;27;20050;-78
2022/07/29 07:54:29;;;;;;;9.27;2.27;;;23.20;61.10;;;;;;5136351;27;20086;-78
2022/07/29 07:56:55;;;;;;;7.30;2.07;;;23.20;61.60;;;;;;5118022;27;20086;-78
2022/07/29 07:59:20;;;;;;;10.13;2.50;;;22.80;63.40;;;;;;5136433;27;20134;-77
2022/07/29 08:01:46;;;;;;;8.13;2.50;;;22.60;64.90;;;;;;5136097;27;20103;-78
2022/07/29 08:04:12;;;;;;;9.20;2.50;;;22.40;66.10;;;;;;5101087;27;20079;-77
2022/07/29 08:06:37;;;;;;;5.53;2.60;;;22.10;68.20;;;;;;5135967;27;20105;-78
2022/07/29 08:09:04;;;;;;;6.63;1.90;;;21.80;69.20;;;;;;5136165;27;20051;-77
2022/07/29 08:11:30;;;;;;;5.50;2.00;;;21.70;70.00;;;;;;5136113;27;20047;-77
2022/07/29 08:13:56;;;;;;;8.60;2.30;;;21.60;72.40;;;;;;5117248;27;20051;-77
2022/07/29 08:16:22;;;;;;;8.73;2.37;;;21.40;73.40;;;;;;5135754;27;20047;-77
2022/07/29 08:18:47;;;;;;;4.70;2.10;;;21.10;74.20;;;;;;5135601;27;20054;-77
2022/07/29 08:21:15;;;;;;;8.93;2.20;;;20.90;76.30;;;;;;5135932;27;20047;-77
2022/07/29 08:23:52;;;;;;;5.80;2.20;;;20.90;79.10;;;;;;5135602;27;20513;-78
2022/07/29 08:26:19;;;;;;;5.07;2.10;;;20.80;80.90;;;;;;5117518;27;20079;-79
2022/07/29 08:28:48;;;;;;;8.57;2.23;;;20.80;81.60;;;;;;5135700;27;20085;-79
2022/07/29 08:31:14;;;;;;;8.60;2.87;;;20.80;81.40;;;;;;5135737;27;20039;-76
2022/07/29 08:33:40;;;;;;;5.87;2.50;;;20.60;84.20;;;;;;5135435;27;20050;-81
2022/07/29 08:36:06;;;;;;;9.23;3.13;;;20.40;86.00;;;;;;5117580;27;20042;-78
2022/07/29 08:38:32;;;;;;;5.30;2.73;;;20.30;87.40;;;;;;5135703;27;20394;-78
2022/07/29 08:41:01;;;;;;;8.70;2.70;;;20.10;90.70;;;;;;5135208;27;20126;-78
2022/07/29 08:43:30;;;;;;;7.33;2.13;;;20.10;90.90;;;;;;5135355;27;20362;-76
2022/07/29 08:45:56;;;;;;;7.80;2.00;;;20.00;92.20;;;;;;5117049;27;20047;-79
2022/07/29 08:48:23;;;;;;;6.13;2.30;;;19.90;92.10;;;;;;5135457;27;20437;-80
2022/07/29 08:50:55;;;;;;;6.47;2.17;;;19.80;93.20;;;;;;5134841;27;20490;-76
2022/07/29 08:53:22;;;;;;;9.90;2.93;;;19.80;94.00;;;;;;5134226;27;20127;-80
2022/07/29 08:55:50;;;;;;;7.03;2.30;;;19.80;93.80;;;;;;5134694;27;20451;-80
2022/07/29 08:58:18;;;;;;;9.40;2.50;;;19.80;95.00;;;;;;5135107;27;20043;-81
2022/07/29 09:00:49;;;;;;;5.97;2.37;;;19.70;95.50;;;;;;5135154;27;20109;-80
2022/07/29 09:03:24;;;;;;;7.10;2.50;;;19.60;95.20;;;;;;5135429;27;20049;-80
2022/07/29 09:05:50;;;;;;;7.03;2.67;;;19.60;95.30;;;;;;5136493;27;20043;-78
2022/07/29 09:08:17;;;;;;;6.97;2.50;;;19.50;95.70;;;;;;5135064;27;20122;-77
2022/07/29 09:10:44;;;;;;;7.73;2.30;;;19.40;96.20;;;;;;5134933;27;20554;-77
2022/07/29 09:13:09;;;;;;;6.00;2.20;;;19.30;96.40;;;;;;5134649;27;20097;-78
2022/07/29 09:15:35;;;;;;;8.03;2.57;;;19.30;96.70;;;;;;5116856;27;20086;-81
2022/07/29 09:18:02;;;;;;;4.83;1.90;;;19.40;96.50;;;;;;5134925;27;20043;-79
2022/07/29 09:21:57;;;;;;;8.00;2.70;;;19.40;97.00;;;;;;5134785;27;20050;-79
2022/07/29 09:23:14;;;;;;;7.40;2.90;;;19.30;97.50;;;;;;5116745;27;20467;-81
2022/07/29 09:25:41;;;;;;;7.20;2.33;;;19.30;97.60;;;;;;5134705;27;20058;-80
2022/07/29 09:28:09;;;;;;;5.37;2.50;;;19.30;98.60;;;;;;5134481;27;20107;-82
2022/07/29 09:30:35;;;;;;;6.93;2.10;;;19.30;98.60;;;;;;5134670;27;20168;-81
2022/07/29 09:33:03;;;;;;;7.00;2.50;;;19.40;98.50;;;;;;5134326;27;20130;-82
2022/07/29 09:35:30;;;;;;;7.67;3.00;;;19.40;98.90;;;;;;5134547;27;20043;-83
2022/07/29 09:37:56;;;;;;;4.77;2.50;;;19.40;99.30;;;;;;5099254;27;20043;-81
2022/07/29 09:40:25;;;;;;;8.63;2.73;;;19.40;99.60;;;;;;5134423;27;20046;-84
2022/07/29 09:42:51;;;;;;;5.57;2.07;;;19.30;99.90;;;;;;5116110;27;20475;-87
2022/07/29 09:45:33;;;;;;;8.73;2.47;;;19.30;99.90;;;;;;5134465;27;20058;-83
2022/07/29 09:48:13;;;;;;;8.93;2.60;;;19.20;99.90;;;;;;5134092;27;20605;-79
2022/07/29 09:50:40;;;;;;;7.47;2.70;;;19.20;99.90;;;;;;5116439;27;20047;-78
2022/07/29 09:53:09;;;;;;;8.33;3.00;;;19.30;99.90;;;;;;5134029;27;20050;-85
2022/07/29 09:55:49;;;;;;;8.47;2.90;;;19.40;99.90;;;;;;5116228;27;20051;-84
2022/07/29 09:58:21;;;;;;;8.30;2.97;;;19.40;99.90;;;;;;5116086;27;20051;-84
2022/07/29 10:00:47;;;;;;;6.07;2.37;;;19.30;99.90;;;;;;5099388;27;20043;-76
2022/07/29 10:03:15;;;;;;;6.00;3.20;;;19.40;99.90;;;;;;5133691;27;20043;-81
2022/07/29 10:05:41;;;;;;;7.43;3.00;;;19.40;99.90;;;;;;5115784;28;20449;-82
2022/07/29 10:08:08;;;;;;;7.93;2.80;;;19.50;99.90;;;;;;5115748;27;20047;-85
2022/07/29 10:10:39;;;;;;;7.57;2.60;;;19.80;99.90;;;;;;5128731;27;20050;-74
2022/07/29 10:13:08;;;;;;;8.07;2.77;;;20.00;99.90;;;;;;5130023;27;20047;-81
2022/07/29 10:15:40;;;;;;;7.77;3.50;;;20.20;99.90;;;;;;5124671;27;20733;-74
2022/07/29 10:18:07;;;;;;;7.80;3.10;;;20.40;99.30;;;;;;5125788;27;20055;-74
2022/07/29 10:20:34;;;;;;;8.13;3.10;;;20.50;98.60;;;;;;5124385;27;20047;-82
2022/07/29 10:23:00;;;;;;;12.00;3.23;;;20.70;98.90;;;;;;5126728;27;20043;-75
2022/07/29 10:25:26;;;;;;;7.47;3.33;;;20.80;97.80;;;;;;5126377;27;20158;-84
2022/07/29 10:27:53;;;;;;;7.67;3.07;;;20.90;96.70;;;;;;5122526;27;20051;-81
2022/07/29 10:30:20;;;;;;;10.07;3.00;;;20.90;96.70;;;;;;5145346;27;20035;-83
2022/07/29 10:33:17;;;;;;;10.00;3.17;;;20.90;96.90;;;;;;5144799;27;20051;-80
2022/07/29 10:36:03;;;;;;;6.03;2.80;;;21.00;96.10;;;;;;5136810;27;20052;-81
2022/07/29 10:39:01;;;;;;;12.37;2.87;;;20.80;94.80;;;;;;5151386;27;20043;-83
2022/07/29 10:41:27;;;;;;;6.60;2.83;;;20.80;95.80;;;;;;5154773;27;20121;-82
2022/07/29 10:43:57;;;;;;;7.83;3.17;;;20.80;95.90;;;;;;5154550;27;20620;-84
2022/07/29 10:46:24;;;;;;;8.90;3.60;;;20.70;96.40;;;;;;5154529;27;20047;-79
2022/07/29 10:49:15;;;;;;;6.47;2.90;;;20.60;96.60;;;;;;5136060;27;20046;-88
2022/07/29 10:52:02;;;;;;;8.77;3.87;;;20.50;97.90;;;;;;5154979;27;20058;-83
2022/07/29 10:54:47;;;;;;;7.60;3.27;;;20.40;98.10;;;;;;5156207;27;20038;-84
2022/07/29 10:57:22;;;;;;;8.63;3.35;;;20.40;98.10;;;;;;5154784;27;20497;-84
2022/07/29 11:00:08;;;;;;;8.70;3.90;;;20.30;99.30;;;;;;5136638;27;20043;-74
2022/07/29 11:02:34;;;;;;;8.63;3.57;;;20.30;99.40;;;;;;5154602;27;20130;-75
2022/07/29 11:05:03;;;;;;;8.67;3.03;;;20.30;99.10;;;;;;5153986;27;20082;-76
2022/07/29 11:07:30;;;;;;;7.73;3.30;;;20.20;98.90;;;;;;5154159;27;20099;-74
2022/07/29 11:10:16;;;;;;;11.23;3.67;;;20.20;98.70;;;;;;5154173;27;20397;-75
2022/07/29 11:12:46;;;;;;;7.77;3.00;;;20.30;97.90;;;;;;5153760;27;20059;-74
2022/07/29 11:15:18;;;;;;;10.33;3.50;;;20.20;97.70;;;;;;5153779;27;20096;-74
2022/07/29 11:18:00;;;;;;;6.47;3.40;;;20.20;97.30;;;;;;5157952;27;20047;-74
2022/07/29 11:20:49;;;;;;;6.93;3.23;;;20.20;97.10;;;;;;5158375;27;20054;-76
2022/07/29 11:23:29;;;;;;;8.30;3.50;;;20.10;97.50;;;;;;5157629;27;20042;-74
2022/07/29 11:26:09;;;;;;;9.03;3.10;;;20.20;97.40;;;;;;5158039;27;20091;-77
2022/07/29 11:29:01;;;;;;;8.83;3.53;;;20.30;97.00;;;;;;5128801;27;20050;-77
2022/07/29 11:31:43;;;;;;;8.00;3.40;;;20.20;97.70;;;;;;5127883;27;20043;-80
2022/07/29 11:34:31;;;;;;;9.53;3.57;;;20.40;98.00;;;;;;5140481;27;20058;-78
2022/07/29 11:37:09;;;;;;;11.30;3.30;;;20.50;96.70;;;;;;5146217;27;20126;-80
2022/07/29 11:39:43;;;;;;;8.70;3.60;;;20.60;96.60;;;;;;5150335;27;20118;-78
2022/07/29 11:42:23;;;;;;;6.90;3.07;;;20.70;96.90;;;;;;5148136;27;20030;-79
2022/07/29 11:45:09;;;;;;;9.40;3.20;;;20.80;96.70;;;;;;5149972;27;20051;-77
2022/07/29 11:47:40;;;;;;;7.50;2.50;;;20.90;95.80;;;;;;5136943;27;20070;-79
2022/07/29 11:50:14;;;;;;;8.50;3.07;;;21.00;96.10;;;;;;5143100;27;20042;-78
2022/07/29 11:52:42;;;;;;;8.10;3.17;;;21.10;95.80;;;;;;5131483;27;20062;-77
2022/07/29 11:55:12;;;;;;;8.43;3.03;;;21.20;95.20;;;;;;5130737;27;20111;-76
2022/07/29 11:57:55;;;;;;;6.70;3.20;;;21.20;93.90;;;;;;5129457;27;20062;-76
2022/07/29 12:00:29;;;;;;;8.33;2.90;;;21.20;92.80;;;;;;5130117;27;20127;-79
2022/07/29 12:02:56;;;;;;;7.57;2.78;;;21.30;92.60;;;;;;5130765;27;20074;-79
2022/07/29 12:05:30;;;;;;;8.07;2.77;;;21.30;91.80;;;;;;5129847;27;20103;-76
2022/07/29 12:07:58;;;;;;;9.32;3.70;;;21.40;91.80;;;;;;5128962;27;20522;-80
2022/07/29 12:10:30;;;;;;;8.10;3.43;;;21.50;91.30;;;;;;5110950;27;20113;-78
2022/07/29 12:12:56;;;;;;;7.13;2.90;;;21.50;91.00;;;;;;5129831;27;20070;-77
2022/07/29 12:15:23;;;;;;;8.27;2.90;;;21.60;90.50;;;;;;5130205;27;20051;-79
2022/07/29 12:17:49;;;;;;;10.43;3.53;;;21.60;90.30;;;;;;5140892;27;20745;-77
2022/07/29 12:20:28;;;;;;;6.00;2.47;;;21.60;90.90;;;;;;5149855;27;20035;-79
2022/07/29 12:22:55;;;;;;;6.50;2.50;;;21.70;90.40;;;;;;5149963;27;20046;-78
2022/07/29 12:25:23;;;;;;;9.07;3.10;;;21.80;90.50;;;;;;5150066;27;20117;-78
2022/07/29 12:28:00;;;;;;;7.23;2.87;;;21.80;90.30;;;;;;5148518;27;20054;-80
2022/07/29 12:30:45;;;;;;;7.57;2.63;;;21.80;89.00;;;;;;5149631;27;20709;-79
2022/07/29 12:33:25;;;;;;;9.63;2.97;;;21.80;88.60;;;;;;5149466;27;20363;-78
2022/07/29 12:35:54;;;;;;;10.00;3.20;;;21.80;89.10;;;;;;5150568;27;20367;-77
2022/07/29 12:38:20;;;;;;;8.53;3.00;;;21.80;89.40;;;;;;5147791;27;20054;-80
2022/07/29 12:40:47;;;;;;;6.43;2.93;;;21.70;90.00;;;;;;5149566;27;20098;-78
2022/07/29 12:43:20;;;;;;;6.00;2.70;;;21.80;90.60;;;;;;5115045;27;20047;-78
2022/07/29 12:45:54;;;;;;;8.93;2.80;;;21.80;90.30;;;;;;5150310;27;20073;-78
2022/07/29 12:48:40;;;;;;;8.00;2.80;;;21.90;90.70;;;;;;5148774;27;20058;-77
2022/07/29 12:51:08;;;;;;;8.23;3.00;;;21.90;90.90;;;;;;5149365;27;20043;-76
2022/07/29 12:53:35;;;;;;;8.33;2.83;;;21.90;90.90;;;;;;5150433;27;20103;-77
2022/07/29 12:56:01;;;;;;;6.57;3.00;;;22.00;90.50;;;;;;5131621;27;20153;-77
2022/07/29 12:58:33;;;;;;;6.17;2.90;;;22.10;90.40;;;;;;5144985;27;20486;-77
2022/07/29 13:01:11;;;;;;;9.20;2.80;;;22.10;88.70;;;;;;5129211;27;20078;-78